LFLS/GNB METAR and TAF weather

Enter ICAO airport designator
Station Type Date Time Source
LFLS METAR 2019/08/24 17:30 UTC NOAA

LFLS 241730Z AUTO 05003KT CAVOK 29/13 Q1018 NOSIG


Station Type Date Time Source
LFLS Decoded METAR 2019/08/24 17:30 UTC NOAA

Station name not available
Aug 24, 2019 - 01:30 PM EDT / 2019.08.24 1730 UTC
Wind: from the NE (050 degrees) at 3 MPH (3 KT):0
Visibility: greater than 7 mile(s):0
Temperature: 84 F (29 C)
Dew Point: 55 F (13 C)
Relative Humidity: 37%
Pressure (altimeter): 30.06 in. Hg (1018 hPa)
ob: LFLS 241730Z AUTO 05003KT CAVOK 29/13 Q1018 NOSIG
cycle: 17

Station Type Date Time Source
LFLS TAF 2019/08/24 15:21 UTC NOAA

TAF LFLS 241400Z 2415/2515 VRB03KT CAVOK
BECMG 2418/2420 08005KT

Example: see airport list